Aviation Digital Data Service (ADDS)

Output produced by METARs form (0210 UTC 26 April 2017)
found at http://www.aviationweather.gov/adds/metars/
 
METAR text: KSLO 260155Z AUTO 18007KT 10SM CLR 23/12 A2957 RMK AO2 T02250117
Conditions at: KSLO (SALEM/LECKRONE , IL, US) observed 0155 UTC 26 April 2017
Temperature: 22.5°C (72°F)
Dewpoint: 11.7°C (53°F) [RH = 50%]
Pressure (altimeter): 29.57 inches Hg (1001.4 mb)
Winds: from the S (180 degrees) at 8 MPH (7 knots; 3.6 m/s)
Visibility: 10 or more miles (16+ km)
Ceiling: at least 12,000 feet AGL
Clouds: sky clear below 12,000 feet AGL
Weather: automated observation with no human augmentation;
there may or may not be significant weather present at this time